sensor_id;sensor_type;location;lat;lon;timestamp;temperature;humidity
72380;SHT30;60354;47.798;12.472;2023-10-09T00:02:07;14.88;83.30
72380;SHT30;60354;47.798;12.472;2023-10-09T00:04:33;14.89;83.76
72380;SHT30;60354;47.798;12.472;2023-10-09T00:07:02;14.85;83.97
72380;SHT30;60354;47.798;12.472;2023-10-09T00:09:28;14.87;83.32
72380;SHT30;60354;47.798;12.472;2023-10-09T00:11:57;14.92;80.74
72380;SHT30;60354;47.798;12.472;2023-10-09T00:14:27;14.92;80.78
72380;SHT30;60354;47.798;12.472;2023-10-09T00:16:56;14.97;80.93
72380;SHT30;60354;47.798;12.472;2023-10-09T00:19:30;15.01;81.41
72380;SHT30;60354;47.798;12.472;2023-10-09T00:21:58;14.98;81.01
72380;SHT30;60354;47.798;12.472;2023-10-09T00:24:32;15.01;81.16
72380;SHT30;60354;47.798;12.472;2023-10-09T00:26:57;15.02;81.46
72380;SHT30;60354;47.798;12.472;2023-10-09T00:29:40;15.02;81.67
72380;SHT30;60354;47.798;12.472;2023-10-09T00:32:13;14.97;81.51
72380;SHT30;60354;47.798;12.472;2023-10-09T00:34:51;15.01;80.38
72380;SHT30;60354;47.798;12.472;2023-10-09T00:37:17;14.98;81.18
72380;SHT30;60354;47.798;12.472;2023-10-09T00:39:50;14.91;81.82
72380;SHT30;60354;47.798;12.472;2023-10-09T00:42:25;14.85;82.12
72380;SHT30;60354;47.798;12.472;2023-10-09T00:44:55;14.77;81.69
72380;SHT30;60354;47.798;12.472;2023-10-09T00:47:21;14.76;81.79
72380;SHT30;60354;47.798;12.472;2023-10-09T00:49:59;14.76;81.27
72380;SHT30;60354;47.798;12.472;2023-10-09T00:52:41;14.74;81.28
72380;SHT30;60354;47.798;12.472;2023-10-09T00:55:20;14.71;81.35
72380;SHT30;60354;47.798;12.472;2023-10-09T00:58:05;14.68;81.36
72380;SHT30;60354;47.798;12.472;2023-10-09T01:00:37;14.73;80.84
72380;SHT30;60354;47.798;12.472;2023-10-09T01:03:11;14.83;80.26
72380;SHT30;60354;47.798;12.472;2023-10-09T01:05:47;14.97;80.13
72380;SHT30;60354;47.798;12.472;2023-10-09T01:08:27;14.95;80.50
72380;SHT30;60354;47.798;12.472;2023-10-09T01:10:58;15.05;79.06
72380;SHT30;60354;47.798;12.472;2023-10-09T01:13:39;15.14;78.25
72380;SHT30;60354;47.798;12.472;2023-10-09T01:16:07;15.22;77.98
72380;SHT30;60354;47.798;12.472;2023-10-09T01:18:41;15.24;78.32
72380;SHT30;60354;47.798;12.472;2023-10-09T01:21:07;15.29;78.36
72380;SHT30;60354;47.798;12.472;2023-10-09T01:23:32;15.28;78.27
72380;SHT30;60354;47.798;12.472;2023-10-09T01:25:58;15.25;78.84
72380;SHT30;60354;47.798;12.472;2023-10-09T01:28:23;15.25;78.81
72380;SHT30;60354;47.798;12.472;2023-10-09T01:30:50;15.26;78.10
72380;SHT30;60354;47.798;12.472;2023-10-09T01:33:17;15.28;78.35
72380;SHT30;60354;47.798;12.472;2023-10-09T01:35:53;15.38;77.47
72380;SHT30;60354;47.798;12.472;2023-10-09T01:38:25;15.39;77.20
72380;SHT30;60354;47.798;12.472;2023-10-09T01:41:16;15.43;77.22
72380;SHT30;60354;47.798;12.472;2023-10-09T01:43:45;15.45;77.31
72380;SHT30;60354;47.798;12.472;2023-10-09T01:46:13;15.39;77.89
72380;SHT30;60354;47.798;12.472;2023-10-09T01:48:45;15.40;77.64
72380;SHT30;60354;47.798;12.472;2023-10-09T01:51:15;15.42;77.37
72380;SHT30;60354;47.798;12.472;2023-10-09T01:53:44;15.43;76.87
72380;SHT30;60354;47.798;12.472;2023-10-09T01:56:13;15.55;76.08
72380;SHT30;60354;47.798;12.472;2023-10-09T01:58:42;15.59;75.52
72380;SHT30;60354;47.798;12.472;2023-10-09T02:01:09;15.69;75.23
72380;SHT30;60354;47.798;12.472;2023-10-09T02:03:35;15.70;75.74
72380;SHT30;60354;47.798;12.472;2023-10-09T02:06:03;15.70;75.58
72380;SHT30;60354;47.798;12.472;2023-10-09T02:08:30;15.73;75.05
72380;SHT30;60354;47.798;12.472;2023-10-09T02:11:00;15.71;75.33
72380;SHT30;60354;47.798;12.472;2023-10-09T02:13:28;15.70;75.89
72380;SHT30;60354;47.798;12.472;2023-10-09T02:16:00;15.67;76.19
72380;SHT30;60354;47.798;12.472;2023-10-09T02:18:51;15.65;76.43
72380;SHT30;60354;47.798;12.472;2023-10-09T02:21:22;15.59;76.64
72380;SHT30;60354;47.798;12.472;2023-10-09T02:23:58;15.57;76.24
72380;SHT30;60354;47.798;12.472;2023-10-09T02:26:28;15.66;75.84
72380;SHT30;60354;47.798;12.472;2023-10-09T02:29:11;15.67;76.13
72380;SHT30;60354;47.798;12.472;2023-10-09T02:31:40;15.66;76.21
72380;SHT30;60354;47.798;12.472;2023-10-09T02:34:12;15.66;76.32
72380;SHT30;60354;47.798;12.472;2023-10-09T02:36:41;15.59;76.58
72380;SHT30;60354;47.798;12.472;2023-10-09T02:39:07;15.60;76.34
72380;SHT30;60354;47.798;12.472;2023-10-09T02:41:47;15.65;76.04
72380;SHT30;60354;47.798;12.472;2023-10-09T02:44:15;15.62;76.18
72380;SHT30;60354;47.798;12.472;2023-10-09T02:46:41;15.62;76.35
72380;SHT30;60354;47.798;12.472;2023-10-09T02:49:06;15.62;76.36
72380;SHT30;60354;47.798;12.472;2023-10-09T02:51:35;15.65;76.09
72380;SHT30;60354;47.798;12.472;2023-10-09T02:54:07;15.67;76.16
72380;SHT30;60354;47.798;12.472;2023-10-09T02:56:51;15.65;76.29
72380;SHT30;60354;47.798;12.472;2023-10-09T02:59:20;15.65;76.17
72380;SHT30;60354;47.798;12.472;2023-10-09T03:01:47;15.65;76.23
72380;SHT30;60354;47.798;12.472;2023-10-09T03:04:13;15.65;76.25
72380;SHT30;60354;47.798;12.472;2023-10-09T03:06:40;15.59;76.35
72380;SHT30;60354;47.798;12.472;2023-10-09T03:09:19;15.56;76.26
72380;SHT30;60354;47.798;12.472;2023-10-09T03:11:53;15.62;76.02
72380;SHT30;60354;47.798;12.472;2023-10-09T03:14:19;15.57;76.27
72380;SHT30;60354;47.798;12.472;2023-10-09T03:16:49;15.55;76.39
72380;SHT30;60354;47.798;12.472;2023-10-09T03:19:14;15.53;76.10
72380;SHT30;60354;47.798;12.472;2023-10-09T03:21:40;15.53;75.73
72380;SHT30;60354;47.798;12.472;2023-10-09T03:24:07;15.55;75.83
72380;SHT30;60354;47.798;12.472;2023-10-09T03:26:34;15.53;75.95
72380;SHT30;60354;47.798;12.472;2023-10-09T03:29:00;15.53;75.84
72380;SHT30;60354;47.798;12.472;2023-10-09T03:31:37;15.56;75.63
72380;SHT30;60354;47.798;12.472;2023-10-09T03:34:04;15.55;75.57
72380;SHT30;60354;47.798;12.472;2023-10-09T03:36:29;15.53;75.38
72380;SHT30;60354;47.798;12.472;2023-10-09T03:38:56;15.65;74.67
72380;SHT30;60354;47.798;12.472;2023-10-09T03:41:27;15.70;73.78
72380;SHT30;60354;47.798;12.472;2023-10-09T03:43:54;15.82;73.45
72380;SHT30;60354;47.798;12.472;2023-10-09T03:46:20;15.76;73.73
72380;SHT30;60354;47.798;12.472;2023-10-09T03:48:48;15.74;74.16
72380;SHT30;60354;47.798;12.472;2023-10-09T03:51:14;15.77;73.82
72380;SHT30;60354;47.798;12.472;2023-10-09T03:53:49;15.80;73.70
72380;SHT30;60354;47.798;12.472;2023-10-09T03:56:16;15.80;73.32
72380;SHT30;60354;47.798;12.472;2023-10-09T03:58:44;15.82;73.42
72380;SHT30;60354;47.798;12.472;2023-10-09T04:01:15;15.87;72.96
72380;SHT30;60354;47.798;12.472;2023-10-09T04:04:00;15.89;72.78
72380;SHT30;60354;47.798;12.472;2023-10-09T04:06:26;15.90;72.78
72380;SHT30;60354;47.798;12.472;2023-10-09T04:09:03;15.85;72.74
72380;SHT30;60354;47.798;12.472;2023-10-09T04:11:52;15.77;73.29
72380;SHT30;60354;47.798;12.472;2023-10-09T04:14:42;15.85;72.49
72380;SHT30;60354;47.798;12.472;2023-10-09T04:17:26;15.85;72.41
72380;SHT30;60354;47.798;12.472;2023-10-09T04:19:54;15.89;72.18
72380;SHT30;60354;47.798;12.472;2023-10-09T04:22:39;15.90;71.99
72380;SHT30;60354;47.798;12.472;2023-10-09T04:25:08;15.85;72.25
72380;SHT30;60354;47.798;12.472;2023-10-09T04:27:43;15.87;71.66
72380;SHT30;60354;47.798;12.472;2023-10-09T04:30:10;15.89;71.56
72380;SHT30;60354;47.798;12.472;2023-10-09T04:32:41;15.87;72.04
72380;SHT30;60354;47.798;12.472;2023-10-09T04:35:10;15.85;72.20
72380;SHT30;60354;47.798;12.472;2023-10-09T04:37:48;15.87;71.31
72380;SHT30;60354;47.798;12.472;2023-10-09T04:40:18;15.85;72.05
72380;SHT30;60354;47.798;12.472;2023-10-09T04:43:02;15.76;72.51
72380;SHT30;60354;47.798;12.472;2023-10-09T04:45:35;15.79;71.89
72380;SHT30;60354;47.798;12.472;2023-10-09T04:48:10;15.74;72.19
72380;SHT30;60354;47.798;12.472;2023-10-09T04:50:36;15.71;72.16
72380;SHT30;60354;47.798;12.472;2023-10-09T04:53:12;15.71;72.01
72380;SHT30;60354;47.798;12.472;2023-10-09T04:55:44;15.76;71.56
72380;SHT30;60354;47.798;12.472;2023-10-09T04:58:25;15.82;71.46
72380;SHT30;60354;47.798;12.472;2023-10-09T05:00:54;15.71;72.19
72380;SHT30;60354;47.798;12.472;2023-10-09T05:03:23;15.69;72.49
72380;SHT30;60354;47.798;12.472;2023-10-09T05:06:08;15.60;72.46
72380;SHT30;60354;47.798;12.472;2023-10-09T05:08:48;15.57;72.79
72380;SHT30;60354;47.798;12.472;2023-10-09T05:11:14;15.53;72.99
72380;SHT30;60354;47.798;12.472;2023-10-09T05:13:58;15.56;72.53
72380;SHT30;60354;47.798;12.472;2023-10-09T05:16:37;15.55;72.48
72380;SHT30;60354;47.798;12.472;2023-10-09T05:19:09;15.56;72.51
72380;SHT30;60354;47.798;12.472;2023-10-09T05:21:54;15.53;72.74
72380;SHT30;60354;47.798;12.472;2023-10-09T05:24:23;15.50;72.63
72380;SHT30;60354;47.798;12.472;2023-10-09T05:26:52;15.55;72.47
72380;SHT30;60354;47.798;12.472;2023-10-09T05:29:23;15.56;72.07
72380;SHT30;60354;47.798;12.472;2023-10-09T05:31:54;15.49;73.01
72380;SHT30;60354;47.798;12.472;2023-10-09T05:34:44;15.49;72.73
72380;SHT30;60354;47.798;12.472;2023-10-09T05:37:32;15.47;72.73
72380;SHT30;60354;47.798;12.472;2023-10-09T05:40:00;15.56;71.76
72380;SHT30;60354;47.798;12.472;2023-10-09T05:42:27;15.56;72.26
72380;SHT30;60354;47.798;12.472;2023-10-09T05:45:08;15.63;71.48
72380;SHT30;60354;47.798;12.472;2023-10-09T05:47:46;15.69;71.27
72380;SHT30;60354;47.798;12.472;2023-10-09T05:50:35;15.74;70.99
72380;SHT30;60354;47.798;12.472;2023-10-09T05:53:03;15.79;71.37
72380;SHT30;60354;47.798;12.472;2023-10-09T05:55:34;15.91;70.18
72380;SHT30;60354;47.798;12.472;2023-10-09T05:58:19;16.00;70.06
72380;SHT30;60354;47.798;12.472;2023-10-09T06:01:02;16.07;69.92
72380;SHT30;60354;47.798;12.472;2023-10-09T06:03:51;16.11;70.07
72380;SHT30;60354;47.798;12.472;2023-10-09T06:06:37;16.17;69.46
72380;SHT30;60354;47.798;12.472;2023-10-09T06:09:21;16.28;68.92
72380;SHT30;60354;47.798;12.472;2023-10-09T06:11:48;16.29;69.69
72380;SHT30;60354;47.798;12.472;2023-10-09T06:14:15;16.34;69.63
72380;SHT30;60354;47.798;12.472;2023-10-09T06:16:51;16.34;70.05
72380;SHT30;60354;47.798;12.472;2023-10-09T06:19:23;16.35;69.93
72380;SHT30;60354;47.798;12.472;2023-10-09T06:21:58;16.37;70.56
72380;SHT30;60354;47.798;12.472;2023-10-09T06:24:42;16.37;70.52
72380;SHT30;60354;47.798;12.472;2023-10-09T06:27:09;16.35;71.33
72380;SHT30;60354;47.798;12.472;2023-10-09T06:29:39;16.35;71.72
72380;SHT30;60354;47.798;12.472;2023-10-09T06:32:11;16.40;70.67
72380;SHT30;60354;47.798;12.472;2023-10-09T06:35:00;16.42;70.90
72380;SHT30;60354;47.798;12.472;2023-10-09T06:37:46;16.48;70.56
72380;SHT30;60354;47.798;12.472;2023-10-09T06:40:37;16.51;69.94
72380;SHT30;60354;47.798;12.472;2023-10-09T06:43:22;16.54;69.82
72380;SHT30;60354;47.798;12.472;2023-10-09T06:45:48;16.58;69.70
72380;SHT30;60354;47.798;12.472;2023-10-09T06:48:21;16.58;70.50
72380;SHT30;60354;47.798;12.472;2023-10-09T06:51:09;16.61;70.24
72380;SHT30;60354;47.798;12.472;2023-10-09T06:54:01;16.64;70.37
72380;SHT30;60354;47.798;12.472;2023-10-09T06:56:43;16.68;70.73
72380;SHT30;60354;47.798;12.472;2023-10-09T06:59:34;16.76;70.56
72380;SHT30;60354;47.798;12.472;2023-10-09T07:02:09;16.82;70.07
72380;SHT30;60354;47.798;12.472;2023-10-09T07:04:35;16.83;70.09
72380;SHT30;60354;47.798;12.472;2023-10-09T07:07:00;16.89;70.02
72380;SHT30;60354;47.798;12.472;2023-10-09T07:09:27;16.95;70.89
72380;SHT30;60354;47.798;12.472;2023-10-09T07:12:08;17.06;71.09
72380;SHT30;60354;47.798;12.472;2023-10-09T07:14:51;17.13;69.58
72380;SHT30;60354;47.798;12.472;2023-10-09T07:17:17;17.17;70.28
72380;SHT30;60354;47.798;12.472;2023-10-09T07:19:49;17.13;69.65
72380;SHT30;60354;47.798;12.472;2023-10-09T07:22:15;17.10;69.44
72380;SHT30;60354;47.798;12.472;2023-10-09T07:24:47;17.16;70.18
72380;SHT30;60354;47.798;12.472;2023-10-09T07:27:28;17.27;70.24
72380;SHT30;60354;47.798;12.472;2023-10-09T07:30:15;17.41;69.01
72380;SHT30;60354;47.798;12.472;2023-10-09T07:33:03;17.60;68.61
72380;SHT30;60354;47.798;12.472;2023-10-09T07:35:38;17.84;68.40
72380;SHT30;60354;47.798;12.472;2023-10-09T07:38:27;18.13;66.74
72380;SHT30;60354;47.798;12.472;2023-10-09T07:41:01;18.37;66.88
72380;SHT30;60354;47.798;12.472;2023-10-09T07:43:32;18.63;65.70
72380;SHT30;60354;47.798;12.472;2023-10-09T07:46:11;18.93;64.86
72380;SHT30;60354;47.798;12.472;2023-10-09T07:48:59;19.06;65.71
72380;SHT30;60354;47.798;12.472;2023-10-09T07:51:35;19.10;65.41
72380;SHT30;60354;47.798;12.472;2023-10-09T07:54:00;19.24;66.71
72380;SHT30;60354;47.798;12.472;2023-10-09T07:56:39;19.35;67.48
72380;SHT30;60354;47.798;12.472;2023-10-09T07:59:09;19.44;67.99
72380;SHT30;60354;47.798;12.472;2023-10-09T08:04:03;19.32;67.56
72380;SHT30;60354;47.798;12.472;2023-10-09T08:06:38;19.45;68.00
72380;SHT30;60354;47.798;12.472;2023-10-09T08:09:07;19.75;66.23
72380;SHT30;60354;47.798;12.472;2023-10-09T08:11:44;19.99;65.67
72380;SHT30;60354;47.798;12.472;2023-10-09T08:14:13;19.94;63.25
72380;SHT30;60354;47.798;12.472;2023-10-09T08:16:50;20.05;63.63
72380;SHT30;60354;47.798;12.472;2023-10-09T08:19:17;20.28;64.07
72380;SHT30;60354;47.798;12.472;2023-10-09T08:21:59;20.44;63.91
72380;SHT30;60354;47.798;12.472;2023-10-09T08:24:43;20.30;65.38
72380;SHT30;60354;47.798;12.472;2023-10-09T08:27:28;20.26;63.08
72380;SHT30;60354;47.798;12.472;2023-10-09T08:29:54;20.30;63.00
72380;SHT30;60354;47.798;12.472;2023-10-09T08:32:39;20.33;63.45
72380;SHT30;60354;47.798;12.472;2023-10-09T08:35:08;20.45;62.73
72380;SHT30;60354;47.798;12.472;2023-10-09T08:37:51;20.49;63.11
72380;SHT30;60354;47.798;12.472;2023-10-09T08:40:21;20.49;63.45
72380;SHT30;60354;47.798;12.472;2023-10-09T08:42:53;20.49;64.66
72380;SHT30;60354;47.798;12.472;2023-10-09T08:45:22;20.51;64.69
72380;SHT30;60354;47.798;12.472;2023-10-09T08:47:55;20.63;63.54
72380;SHT30;60354;47.798;12.472;2023-10-09T08:50:21;20.67;63.26
72380;SHT30;60354;47.798;12.472;2023-10-09T08:52:48;20.74;63.25
72380;SHT30;60354;47.798;12.472;2023-10-09T08:55:15;20.85;62.62
72380;SHT30;60354;47.798;12.472;2023-10-09T08:57:47;20.95;61.77
72380;SHT30;60354;47.798;12.472;2023-10-09T09:00:19;21.05;61.08
72380;SHT30;60354;47.798;12.472;2023-10-09T09:02:58;21.13;62.27
72380;SHT30;60354;47.798;12.472;2023-10-09T09:05:25;21.19;62.40
72380;SHT30;60354;47.798;12.472;2023-10-09T09:07:54;21.37;55.54
72380;SHT30;60354;47.798;12.472;2023-10-09T09:10:31;21.37;66.66
72380;SHT30;60354;47.798;12.472;2023-10-09T09:13:04;21.49;67.19
72380;SHT30;60354;47.798;12.472;2023-10-09T09:15:32;21.68;63.64
72380;SHT30;60354;47.798;12.472;2023-10-09T09:18:08;21.83;60.82
72380;SHT30;60354;47.798;12.472;2023-10-09T09:20:37;21.97;57.25
72380;SHT30;60354;47.798;12.472;2023-10-09T09:23:05;22.07;54.82
72380;SHT30;60354;47.798;12.472;2023-10-09T09:25:47;22.14;51.98
72380;SHT30;60354;47.798;12.472;2023-10-09T09:28:24;22.21;51.12
72380;SHT30;60354;47.798;12.472;2023-10-09T09:30:52;22.32;51.41
72380;SHT30;60354;47.798;12.472;2023-10-09T09:33:24;22.32;51.79
72380;SHT30;60354;47.798;12.472;2023-10-09T09:36:00;22.39;49.70
72380;SHT30;60354;47.798;12.472;2023-10-09T09:38:31;22.38;50.70
72380;SHT30;60354;47.798;12.472;2023-10-09T09:41:08;22.35;50.21
72380;SHT30;60354;47.798;12.472;2023-10-09T09:43:36;22.36;50.51
72380;SHT30;60354;47.798;12.472;2023-10-09T09:46:07;22.35;49.56
72380;SHT30;60354;47.798;12.472;2023-10-09T09:48:37;22.41;50.11
72380;SHT30;60354;47.798;12.472;2023-10-09T09:51:04;22.49;50.19
72380;SHT30;60354;47.798;12.472;2023-10-09T09:53:34;22.56;50.68
72380;SHT30;60354;47.798;12.472;2023-10-09T09:56:00;22.59;49.87
72380;SHT30;60354;47.798;12.472;2023-10-09T09:58:28;22.62;49.22
72380;SHT30;60354;47.798;12.472;2023-10-09T10:01:05;22.63;49.95
72380;SHT30;60354;47.798;12.472;2023-10-09T10:04:05;22.65;50.21
72380;SHT30;60354;47.798;12.472;2023-10-09T10:06:35;22.72;50.30
72380;SHT30;60354;47.798;12.472;2023-10-09T10:09:01;22.70;50.02
72380;SHT30;60354;47.798;12.472;2023-10-09T10:14:11;22.68;52.07
72380;SHT30;60354;47.798;12.472;2023-10-09T10:17:02;22.76;52.36
72380;SHT30;60354;47.798;12.472;2023-10-09T10:20:05;22.82;51.19
72380;SHT30;60354;47.798;12.472;2023-10-09T10:22:51;22.73;51.52
72380;SHT30;60354;47.798;12.472;2023-10-09T10:28:27;22.76;52.87
72380;SHT30;60354;47.798;12.472;2023-10-09T10:31:08;22.68;53.03
72380;SHT30;60354;47.798;12.472;2023-10-09T10:36:20;22.70;52.78
72380;SHT30;60354;47.798;12.472;2023-10-09T10:38:59;22.75;53.92
72380;SHT30;60354;47.798;12.472;2023-10-09T10:41:30;22.77;53.49
72380;SHT30;60354;47.798;12.472;2023-10-09T10:44:01;22.77;53.17
72380;SHT30;60354;47.798;12.472;2023-10-09T10:46:46;22.73;52.58
72380;SHT30;60354;47.798;12.472;2023-10-09T10:49:18;22.87;52.08
72380;SHT30;60354;47.798;12.472;2023-10-09T10:51:50;22.83;50.98
72380;SHT30;60354;47.798;12.472;2023-10-09T10:54:26;22.89;52.18
72380;SHT30;60354;47.798;12.472;2023-10-09T10:56:58;22.93;53.56
72380;SHT30;60354;47.798;12.472;2023-10-09T10:59:30;22.95;52.86
72380;SHT30;60354;47.798;12.472;2023-10-09T11:02:09;23.04;51.90
72380;SHT30;60354;47.798;12.472;2023-10-09T11:04:35;23.02;50.70
72380;SHT30;60354;47.798;12.472;2023-10-09T11:07:11;23.14;52.15
72380;SHT30;60354;47.798;12.472;2023-10-09T11:09:57;23.21;50.99
72380;SHT30;60354;47.798;12.472;2023-10-09T11:15:32;23.43;51.08
72380;SHT30;60354;47.798;12.472;2023-10-09T11:18:10;23.46;51.93
72380;SHT30;60354;47.798;12.472;2023-10-09T11:20:50;23.47;51.89
72380;SHT30;60354;47.798;12.472;2023-10-09T11:23:38;23.50;51.38
72380;SHT30;60354;47.798;12.472;2023-10-09T11:26:12;23.40;50.54
72380;SHT30;60354;47.798;12.472;2023-10-09T11:29:11;23.30;51.13
72380;SHT30;60354;47.798;12.472;2023-10-09T11:31:41;23.30;49.25
72380;SHT30;60354;47.798;12.472;2023-10-09T11:34:20;23.24;49.67
72380;SHT30;60354;47.798;12.472;2023-10-09T11:37:12;23.23;50.62
72380;SHT30;60354;47.798;12.472;2023-10-09T11:39:38;23.30;50.20
72380;SHT30;60354;47.798;12.472;2023-10-09T11:42:18;23.27;50.41
72380;SHT30;60354;47.798;12.472;2023-10-09T11:45:07;23.24;50.23
72380;SHT30;60354;47.798;12.472;2023-10-09T11:47:46;23.21;51.69
72380;SHT30;60354;47.798;12.472;2023-10-09T11:50:43;23.28;50.48
72380;SHT30;60354;47.798;12.472;2023-10-09T11:53:11;23.46;51.22
72380;SHT30;60354;47.798;12.472;2023-10-09T11:55:59;23.54;50.24
72380;SHT30;60354;47.798;12.472;2023-10-09T11:58:24;23.74;49.44
72380;SHT30;60354;47.798;12.472;2023-10-09T12:00:53;23.95;49.64
72380;SHT30;60354;47.798;12.472;2023-10-09T12:03:26;24.06;48.69
72380;SHT30;60354;47.798;12.472;2023-10-09T12:05:59;24.12;48.18
72380;SHT30;60354;47.798;12.472;2023-10-09T12:08:34;24.20;47.31
72380;SHT30;60354;47.798;12.472;2023-10-09T12:11:00;24.20;47.18
72380;SHT30;60354;47.798;12.472;2023-10-09T12:13:29;24.12;46.83
72380;SHT30;60354;47.798;12.472;2023-10-09T12:15:56;24.16;46.64
72380;SHT30;60354;47.798;12.472;2023-10-09T12:18:23;24.32;47.78
72380;SHT30;60354;47.798;12.472;2023-10-09T12:20:49;24.20;48.46
72380;SHT30;60354;47.798;12.472;2023-10-09T12:23:20;24.29;48.91
72380;SHT30;60354;47.798;12.472;2023-10-09T12:25:48;24.26;48.86
72380;SHT30;60354;47.798;12.472;2023-10-09T12:28:15;24.16;48.89
72380;SHT30;60354;47.798;12.472;2023-10-09T12:30:41;24.16;49.17
72380;SHT30;60354;47.798;12.472;2023-10-09T12:33:07;24.12;49.41
72380;SHT30;60354;47.798;12.472;2023-10-09T12:35:37;23.89;49.58
72380;SHT30;60354;47.798;12.472;2023-10-09T12:38:04;23.96;50.66
72380;SHT30;60354;47.798;12.472;2023-10-09T12:40:34;23.88;49.09
72380;SHT30;60354;47.798;12.472;2023-10-09T12:43:00;23.99;49.74
72380;SHT30;60354;47.798;12.472;2023-10-09T12:45:28;24.13;49.25
72380;SHT30;60354;47.798;12.472;2023-10-09T12:48:03;24.12;50.40
72380;SHT30;60354;47.798;12.472;2023-10-09T12:50:34;24.10;50.39
72380;SHT30;60354;47.798;12.472;2023-10-09T12:53:00;24.10;50.49
72380;SHT30;60354;47.798;12.472;2023-10-09T12:55:38;24.02;49.34
72380;SHT30;60354;47.798;12.472;2023-10-09T12:58:07;23.99;49.55
72380;SHT30;60354;47.798;12.472;2023-10-09T13:00:34;24.08;50.58
72380;SHT30;60354;47.798;12.472;2023-10-09T13:03:04;23.75;49.88
72380;SHT30;60354;47.798;12.472;2023-10-09T13:05:39;23.74;50.08
72380;SHT30;60354;47.798;12.472;2023-10-09T13:08:18;23.53;50.45
72380;SHT30;60354;47.798;12.472;2023-10-09T13:10:47;23.64;50.98
72380;SHT30;60354;47.798;12.472;2023-10-09T13:13:20;23.57;51.26
72380;SHT30;60354;47.798;12.472;2023-10-09T13:15:46;23.67;51.78
72380;SHT30;60354;47.798;12.472;2023-10-09T13:18:11;23.65;51.22
72380;SHT30;60354;47.798;12.472;2023-10-09T13:20:37;23.62;50.36
72380;SHT30;60354;47.798;12.472;2023-10-09T13:23:03;23.48;49.94
72380;SHT30;60354;47.798;12.472;2023-10-09T13:25:28;23.47;50.88
72380;SHT30;60354;47.798;12.472;2023-10-09T13:28:05;23.46;50.50
72380;SHT30;60354;47.798;12.472;2023-10-09T13:30:31;23.55;50.41
72380;SHT30;60354;47.798;12.472;2023-10-09T13:33:04;23.64;50.89
72380;SHT30;60354;47.798;12.472;2023-10-09T13:35:31;23.72;50.59
72380;SHT30;60354;47.798;12.472;2023-10-09T13:38:03;23.74;50.45
72380;SHT30;60354;47.798;12.472;2023-10-09T13:40:33;23.58;49.63
72380;SHT30;60354;47.798;12.472;2023-10-09T13:43:00;23.65;50.33
72380;SHT30;60354;47.798;12.472;2023-10-09T13:45:27;23.50;50.00
72380;SHT30;60354;47.798;12.472;2023-10-09T13:47:54;23.38;49.83
72380;SHT30;60354;47.798;12.472;2023-10-09T13:50:21;23.33;50.20
72380;SHT30;60354;47.798;12.472;2023-10-09T13:52:48;23.17;50.09
72380;SHT30;60354;47.798;12.472;2023-10-09T13:55:13;23.16;51.26
72380;SHT30;60354;47.798;12.472;2023-10-09T13:57:43;22.99;50.63
72380;SHT30;60354;47.798;12.472;2023-10-09T14:00:14;22.96;50.62
72380;SHT30;60354;47.798;12.472;2023-10-09T14:03:00;22.89;52.08
72380;SHT30;60354;47.798;12.472;2023-10-09T14:05:37;22.82;51.29
72380;SHT30;60354;47.798;12.472;2023-10-09T14:08:09;22.76;52.83
72380;SHT30;60354;47.798;12.472;2023-10-09T14:10:37;22.66;51.60
72380;SHT30;60354;47.798;12.472;2023-10-09T14:13:04;22.60;52.71
72380;SHT30;60354;47.798;12.472;2023-10-09T14:15:37;22.58;54.90
72380;SHT30;60354;47.798;12.472;2023-10-09T14:18:06;22.58;54.42
72380;SHT30;60354;47.798;12.472;2023-10-09T14:20:34;22.60;54.08
72380;SHT30;60354;47.798;12.472;2023-10-09T14:23:00;22.56;52.82
72380;SHT30;60354;47.798;12.472;2023-10-09T14:25:34;22.53;53.08
72380;SHT30;60354;47.798;12.472;2023-10-09T14:28:06;22.52;53.56
72380;SHT30;60354;47.798;12.472;2023-10-09T14:30:36;22.53;53.67
72380;SHT30;60354;47.798;12.472;2023-10-09T14:33:14;22.49;54.00
72380;SHT30;60354;47.798;12.472;2023-10-09T14:35:48;22.53;54.13
72380;SHT30;60354;47.798;12.472;2023-10-09T14:38:14;22.46;54.97
72380;SHT30;60354;47.798;12.472;2023-10-09T14:40:46;22.41;55.96
72380;SHT30;60354;47.798;12.472;2023-10-09T14:43:13;22.34;55.18
72380;SHT30;60354;47.798;12.472;2023-10-09T14:45:48;22.34;55.47
72380;SHT30;60354;47.798;12.472;2023-10-09T14:48:17;22.11;58.09
72380;SHT30;60354;47.798;12.472;2023-10-09T14:50:50;22.01;58.79
72380;SHT30;60354;47.798;12.472;2023-10-09T14:53:22;21.96;59.22
72380;SHT30;60354;47.798;12.472;2023-10-09T14:55:58;21.81;59.36
72380;SHT30;60354;47.798;12.472;2023-10-09T14:58:27;21.76;57.72
72380;SHT30;60354;47.798;12.472;2023-10-09T15:00:55;21.74;61.59
72380;SHT30;60354;47.798;12.472;2023-10-09T15:03:21;21.58;50.45
72380;SHT30;60354;47.798;12.472;2023-10-09T15:05:47;21.51;51.74
72380;SHT30;60354;47.798;12.472;2023-10-09T15:08:13;21.43;51.08
72380;SHT30;60354;47.798;12.472;2023-10-09T15:10:49;21.40;51.57
72380;SHT30;60354;47.798;12.472;2023-10-09T15:13:17;21.40;53.15
72380;SHT30;60354;47.798;12.472;2023-10-09T15:15:44;21.46;53.14
72380;SHT30;60354;47.798;12.472;2023-10-09T15:18:11;21.40;52.90
72380;SHT30;60354;47.798;12.472;2023-10-09T15:20:40;21.43;50.69
72380;SHT30;60354;47.798;12.472;2023-10-09T15:23:07;21.39;51.56
72380;SHT30;60354;47.798;12.472;2023-10-09T15:25:33;21.36;49.29
72380;SHT30;60354;47.798;12.472;2023-10-09T15:28:00;21.37;48.11
72380;SHT30;60354;47.798;12.472;2023-10-09T15:30:26;21.37;47.85
72380;SHT30;60354;47.798;12.472;2023-10-09T15:32:52;21.33;47.18
72380;SHT30;60354;47.798;12.472;2023-10-09T15:35:17;21.32;45.40
72380;SHT30;60354;47.798;12.472;2023-10-09T15:37:44;21.33;45.41
72380;SHT30;60354;47.798;12.472;2023-10-09T15:40:11;21.33;46.04
72380;SHT30;60354;47.798;12.472;2023-10-09T15:42:45;21.26;47.08
72380;SHT30;60354;47.798;12.472;2023-10-09T15:45:22;21.26;44.09
72380;SHT30;60354;47.798;12.472;2023-10-09T15:47:48;21.20;43.28
72380;SHT30;60354;47.798;12.472;2023-10-09T15:50:16;21.23;43.45
72380;SHT30;60354;47.798;12.472;2023-10-09T15:52:42;21.22;42.05
72380;SHT30;60354;47.798;12.472;2023-10-09T15:55:07;21.23;40.82
72380;SHT30;60354;47.798;12.472;2023-10-09T15:57:46;21.29;40.73
72380;SHT30;60354;47.798;12.472;2023-10-09T16:00:14;21.29;40.26
72380;SHT30;60354;47.798;12.472;2023-10-09T16:02:47;21.35;39.58
72380;SHT30;60354;47.798;12.472;2023-10-09T16:05:13;21.35;40.16